sensor_id;sensor_type;location;lat;lon;timestamp;P1;durP1;ratioP1;P2;durP2;ratioP2
23328;SDS011;11836;51.050;3.716;2023-04-24T00:01:15;2.75;;;1.60;;
23328;SDS011;11836;51.050;3.716;2023-04-24T00:03:42;5.07;;;2.28;;
23328;SDS011;11836;51.050;3.716;2023-04-24T00:06:09;2.22;;;1.48;;
23328;SDS011;11836;51.050;3.716;2023-04-24T00:08:34;4.03;;;1.40;;
23328;SDS011;11836;51.050;3.716;2023-04-24T00:11:01;2.28;;;1.40;;
23328;SDS011;11836;51.050;3.716;2023-04-24T00:13:27;2.67;;;1.60;;
23328;SDS011;11836;51.050;3.716;2023-04-24T00:15:53;2.25;;;1.58;;
23328;SDS011;11836;51.050;3.716;2023-04-24T00:18:19;4.72;;;1.70;;
23328;SDS011;11836;51.050;3.716;2023-04-24T00:20:45;2.70;;;1.48;;
23328;SDS011;11836;51.050;3.716;2023-04-24T00:23:11;3.28;;;1.60;;
23328;SDS011;11836;51.050;3.716;2023-04-24T00:25:37;2.75;;;1.52;;
23328;SDS011;11836;51.050;3.716;2023-04-24T00:28:03;4.03;;;1.10;;
23328;SDS011;11836;51.050;3.716;2023-04-24T00:30:29;3.20;;;1.30;;
23328;SDS011;11836;51.050;3.716;2023-04-24T00:32:54;1.60;;;1.27;;
23328;SDS011;11836;51.050;3.716;2023-04-24T00:35:20;2.72;;;1.40;;
23328;SDS011;11836;51.050;3.716;2023-04-24T00:37:46;2.97;;;1.15;;
23328;SDS011;11836;51.050;3.716;2023-04-24T00:40:11;1.33;;;1.17;;
23328;SDS011;11836;51.050;3.716;2023-04-24T00:42:37;2.05;;;1.55;;
23328;SDS011;11836;51.050;3.716;2023-04-24T00:45:05;2.42;;;1.60;;
23328;SDS011;11836;51.050;3.716;2023-04-24T00:47:31;2.60;;;1.23;;
23328;SDS011;11836;51.050;3.716;2023-04-24T00:50:02;1.58;;;1.10;;
23328;SDS011;11836;51.050;3.716;2023-04-24T00:52:29;1.95;;;1.20;;
23328;SDS011;11836;51.050;3.716;2023-04-24T00:54:57;1.20;;;1.02;;
23328;SDS011;11836;51.050;3.716;2023-04-24T00:57:22;3.17;;;1.33;;
23328;SDS011;11836;51.050;3.716;2023-04-24T00:59:49;3.92;;;1.58;;
23328;SDS011;11836;51.050;3.716;2023-04-24T01:02:16;1.63;;;1.10;;
23328;SDS011;11836;51.050;3.716;2023-04-24T01:04:42;2.20;;;1.35;;
23328;SDS011;11836;51.050;3.716;2023-04-24T01:07:08;2.25;;;1.25;;
23328;SDS011;11836;51.050;3.716;2023-04-24T01:09:42;1.52;;;1.30;;
23328;SDS011;11836;51.050;3.716;2023-04-24T01:12:12;1.58;;;1.40;;
23328;SDS011;11836;51.050;3.716;2023-04-24T01:14:38;2.78;;;1.58;;
23328;SDS011;11836;51.050;3.716;2023-04-24T01:17:05;1.73;;;1.52;;
23328;SDS011;11836;51.050;3.716;2023-04-24T01:19:30;2.97;;;1.25;;
23328;SDS011;11836;51.050;3.716;2023-04-24T01:21:58;1.48;;;1.38;;
23328;SDS011;11836;51.050;3.716;2023-04-24T01:24:26;1.75;;;1.10;;
23328;SDS011;11836;51.050;3.716;2023-04-24T01:26:53;1.55;;;1.20;;
23328;SDS011;11836;51.050;3.716;2023-04-24T01:29:19;1.23;;;0.90;;
23328;SDS011;11836;51.050;3.716;2023-04-24T01:31:45;2.40;;;1.30;;
23328;SDS011;11836;51.050;3.716;2023-04-24T01:34:10;1.70;;;1.30;;
23328;SDS011;11836;51.050;3.716;2023-04-24T01:36:37;1.45;;;1.10;;
23328;SDS011;11836;51.050;3.716;2023-04-24T01:39:03;2.90;;;1.42;;
23328;SDS011;11836;51.050;3.716;2023-04-24T01:41:30;1.77;;;1.45;;
23328;SDS011;11836;51.050;3.716;2023-04-24T01:43:56;1.42;;;1.33;;
23328;SDS011;11836;51.050;3.716;2023-04-24T01:46:23;1.17;;;1.00;;
23328;SDS011;11836;51.050;3.716;2023-04-24T01:48:49;1.58;;;0.80;;
23328;SDS011;11836;51.050;3.716;2023-04-24T01:51:16;1.60;;;1.33;;
23328;SDS011;11836;51.050;3.716;2023-04-24T01:53:42;2.17;;;1.23;;
23328;SDS011;11836;51.050;3.716;2023-04-24T01:56:08;2.13;;;1.10;;
23328;SDS011;11836;51.050;3.716;2023-04-24T01:58:34;2.95;;;1.40;;
23328;SDS011;11836;51.050;3.716;2023-04-24T02:01:00;1.75;;;1.20;;
23328;SDS011;11836;51.050;3.716;2023-04-24T02:03:26;1.40;;;1.02;;
23328;SDS011;11836;51.050;3.716;2023-04-24T02:05:52;3.13;;;1.00;;
23328;SDS011;11836;51.050;3.716;2023-04-24T02:08:18;3.00;;;1.23;;
23328;SDS011;11836;51.050;3.716;2023-04-24T02:10:44;2.08;;;1.20;;
23328;SDS011;11836;51.050;3.716;2023-04-24T02:13:10;1.30;;;1.02;;
23328;SDS011;11836;51.050;3.716;2023-04-24T02:15:38;1.90;;;1.10;;
23328;SDS011;11836;51.050;3.716;2023-04-24T02:18:04;1.70;;;1.00;;
23328;SDS011;11836;51.050;3.716;2023-04-24T02:20:31;1.63;;;1.05;;
23328;SDS011;11836;51.050;3.716;2023-04-24T02:22:59;1.52;;;1.20;;
23328;SDS011;11836;51.050;3.716;2023-04-24T02:25:25;1.77;;;1.35;;
23328;SDS011;11836;51.050;3.716;2023-04-24T02:27:50;0.98;;;0.90;;
23328;SDS011;11836;51.050;3.716;2023-04-24T02:30:16;2.08;;;1.13;;
23328;SDS011;11836;51.050;3.716;2023-04-24T02:32:41;1.10;;;1.00;;
23328;SDS011;11836;51.050;3.716;2023-04-24T02:35:07;1.10;;;1.00;;
23328;SDS011;11836;51.050;3.716;2023-04-24T02:37:33;2.03;;;1.05;;
23328;SDS011;11836;51.050;3.716;2023-04-24T02:39:59;1.38;;;1.00;;
23328;SDS011;11836;51.050;3.716;2023-04-24T02:42:25;1.67;;;1.15;;
23328;SDS011;11836;51.050;3.716;2023-04-24T02:44:50;3.05;;;1.23;;
23328;SDS011;11836;51.050;3.716;2023-04-24T02:47:16;1.25;;;1.15;;
23328;SDS011;11836;51.050;3.716;2023-04-24T02:49:42;1.42;;;0.95;;
23328;SDS011;11836;51.050;3.716;2023-04-24T02:52:07;1.50;;;1.00;;
23328;SDS011;11836;51.050;3.716;2023-04-24T02:54:33;0.80;;;0.80;;
23328;SDS011;11836;51.050;3.716;2023-04-24T02:56:59;1.77;;;1.20;;
23328;SDS011;11836;51.050;3.716;2023-04-24T02:59:26;1.52;;;0.98;;
23328;SDS011;11836;51.050;3.716;2023-04-24T03:01:54;1.17;;;0.90;;
23328;SDS011;11836;51.050;3.716;2023-04-24T03:04:19;1.52;;;0.80;;
23328;SDS011;11836;51.050;3.716;2023-04-24T03:06:45;1.15;;;0.88;;
23328;SDS011;11836;51.050;3.716;2023-04-24T03:09:11;2.88;;;1.08;;
23328;SDS011;11836;51.050;3.716;2023-04-24T03:11:36;1.20;;;0.90;;
23328;SDS011;11836;51.050;3.716;2023-04-24T03:14:02;1.05;;;0.70;;
23328;SDS011;11836;51.050;3.716;2023-04-24T03:16:28;0.80;;;0.73;;
23328;SDS011;11836;51.050;3.716;2023-04-24T03:18:53;2.60;;;0.98;;
23328;SDS011;11836;51.050;3.716;2023-04-24T03:21:22;1.02;;;0.90;;
23328;SDS011;11836;51.050;3.716;2023-04-24T03:23:48;1.35;;;0.90;;
23328;SDS011;11836;51.050;3.716;2023-04-24T03:26:13;1.33;;;1.10;;
23328;SDS011;11836;51.050;3.716;2023-04-24T03:28:39;1.75;;;0.88;;
23328;SDS011;11836;51.050;3.716;2023-04-24T03:31:06;1.42;;;0.88;;
23328;SDS011;11836;51.050;3.716;2023-04-24T03:33:31;0.93;;;0.70;;
23328;SDS011;11836;51.050;3.716;2023-04-24T03:35:57;0.80;;;0.73;;
23328;SDS011;11836;51.050;3.716;2023-04-24T03:38:22;1.38;;;0.93;;
23328;SDS011;11836;51.050;3.716;2023-04-24T03:40:48;1.42;;;0.90;;
23328;SDS011;11836;51.050;3.716;2023-04-24T03:43:14;1.45;;;0.85;;
23328;SDS011;11836;51.050;3.716;2023-04-24T03:45:40;1.75;;;0.93;;
23328;SDS011;11836;51.050;3.716;2023-04-24T03:48:06;1.48;;;1.05;;
23328;SDS011;11836;51.050;3.716;2023-04-24T03:50:32;1.25;;;0.90;;
23328;SDS011;11836;51.050;3.716;2023-04-24T03:52:58;1.30;;;0.90;;
23328;SDS011;11836;51.050;3.716;2023-04-24T03:55:24;1.27;;;0.88;;
23328;SDS011;11836;51.050;3.716;2023-04-24T03:57:50;0.85;;;0.60;;
23328;SDS011;11836;51.050;3.716;2023-04-24T04:00:15;2.03;;;1.10;;
23328;SDS011;11836;51.050;3.716;2023-04-24T04:02:41;1.63;;;1.10;;
23328;SDS011;11836;51.050;3.716;2023-04-24T04:05:07;1.98;;;1.25;;
23328;SDS011;11836;51.050;3.716;2023-04-24T04:07:34;2.65;;;1.30;;
23328;SDS011;11836;51.050;3.716;2023-04-24T04:09:59;0.98;;;0.88;;
23328;SDS011;11836;51.050;3.716;2023-04-24T04:12:25;2.35;;;1.17;;
23328;SDS011;11836;51.050;3.716;2023-04-24T04:14:50;1.42;;;1.10;;
23328;SDS011;11836;51.050;3.716;2023-04-24T04:17:16;1.70;;;1.10;;
23328;SDS011;11836;51.050;3.716;2023-04-24T04:19:43;1.20;;;1.10;;
23328;SDS011;11836;51.050;3.716;2023-04-24T04:22:08;1.00;;;0.90;;
23328;SDS011;11836;51.050;3.716;2023-04-24T04:24:34;1.40;;;1.20;;
23328;SDS011;11836;51.050;3.716;2023-04-24T04:27:03;1.33;;;1.05;;
23328;SDS011;11836;51.050;3.716;2023-04-24T04:29:30;3.35;;;1.30;;
23328;SDS011;11836;51.050;3.716;2023-04-24T04:31:56;1.67;;;1.25;;
23328;SDS011;11836;51.050;3.716;2023-04-24T04:34:24;2.47;;;1.33;;
23328;SDS011;11836;51.050;3.716;2023-04-24T04:36:49;1.63;;;1.10;;
23328;SDS011;11836;51.050;3.716;2023-04-24T04:39:15;1.00;;;0.90;;
23328;SDS011;11836;51.050;3.716;2023-04-24T04:41:44;2.55;;;1.33;;
23328;SDS011;11836;51.050;3.716;2023-04-24T04:44:17;2.45;;;1.50;;
23328;SDS011;11836;51.050;3.716;2023-04-24T04:46:43;2.60;;;1.17;;
23328;SDS011;11836;51.050;3.716;2023-04-24T04:49:09;2.28;;;1.35;;
23328;SDS011;11836;51.050;3.716;2023-04-24T04:51:35;1.48;;;1.00;;
23328;SDS011;11836;51.050;3.716;2023-04-24T04:54:01;1.83;;;1.20;;
23328;SDS011;11836;51.050;3.716;2023-04-24T04:56:27;1.20;;;1.10;;
23328;SDS011;11836;51.050;3.716;2023-04-24T04:58:52;1.38;;;1.27;;
23328;SDS011;11836;51.050;3.716;2023-04-24T05:01:18;2.03;;;1.02;;
23328;SDS011;11836;51.050;3.716;2023-04-24T05:03:45;1.33;;;1.20;;
23328;SDS011;11836;51.050;3.716;2023-04-24T05:06:10;1.55;;;1.20;;
23328;SDS011;11836;51.050;3.716;2023-04-24T05:08:36;2.15;;;1.25;;
23328;SDS011;11836;51.050;3.716;2023-04-24T05:11:01;1.65;;;1.10;;
23328;SDS011;11836;51.050;3.716;2023-04-24T05:13:27;1.85;;;1.27;;
23328;SDS011;11836;51.050;3.716;2023-04-24T05:15:53;2.05;;;1.20;;
23328;SDS011;11836;51.050;3.716;2023-04-24T05:18:18;1.75;;;1.15;;
23328;SDS011;11836;51.050;3.716;2023-04-24T05:20:44;1.88;;;1.30;;
23328;SDS011;11836;51.050;3.716;2023-04-24T05:23:10;1.23;;;1.02;;
23328;SDS011;11836;51.050;3.716;2023-04-24T05:25:36;2.03;;;1.40;;
23328;SDS011;11836;51.050;3.716;2023-04-24T05:28:04;1.33;;;1.15;;
23328;SDS011;11836;51.050;3.716;2023-04-24T05:30:30;2.13;;;1.20;;
23328;SDS011;11836;51.050;3.716;2023-04-24T05:32:56;1.30;;;1.15;;
23328;SDS011;11836;51.050;3.716;2023-04-24T05:35:21;1.50;;;1.27;;
23328;SDS011;11836;51.050;3.716;2023-04-24T05:37:47;2.17;;;1.23;;
23328;SDS011;11836;51.050;3.716;2023-04-24T05:40:14;2.45;;;1.58;;
23328;SDS011;11836;51.050;3.716;2023-04-24T05:42:43;2.05;;;1.55;;
23328;SDS011;11836;51.050;3.716;2023-04-24T05:45:08;2.10;;;1.70;;
23328;SDS011;11836;51.050;3.716;2023-04-24T05:47:39;2.10;;;1.30;;
23328;SDS011;11836;51.050;3.716;2023-04-24T05:50:05;2.95;;;1.25;;
23328;SDS011;11836;51.050;3.716;2023-04-24T05:52:34;2.67;;;1.50;;
23328;SDS011;11836;51.050;3.716;2023-04-24T05:55:00;1.52;;;1.40;;
23328;SDS011;11836;51.050;3.716;2023-04-24T05:57:26;2.47;;;1.45;;
23328;SDS011;11836;51.050;3.716;2023-04-24T05:59:52;2.78;;;1.35;;
23328;SDS011;11836;51.050;3.716;2023-04-24T06:02:17;2.40;;;1.60;;
23328;SDS011;11836;51.050;3.716;2023-04-24T06:04:43;2.65;;;1.40;;
23328;SDS011;11836;51.050;3.716;2023-04-24T06:07:12;2.10;;;1.60;;
23328;SDS011;11836;51.050;3.716;2023-04-24T06:09:38;2.25;;;1.40;;
23328;SDS011;11836;51.050;3.716;2023-04-24T06:12:04;1.60;;;1.40;;
23328;SDS011;11836;51.050;3.716;2023-04-24T06:14:30;1.70;;;1.55;;
23328;SDS011;11836;51.050;3.716;2023-04-24T06:16:55;1.48;;;1.38;;
23328;SDS011;11836;51.050;3.716;2023-04-24T06:19:21;1.95;;;1.35;;
23328;SDS011;11836;51.050;3.716;2023-04-24T06:21:47;1.73;;;1.30;;
23328;SDS011;11836;51.050;3.716;2023-04-24T06:24:13;1.60;;;1.33;;
23328;SDS011;11836;51.050;3.716;2023-04-24T06:26:41;1.90;;;1.40;;
23328;SDS011;11836;51.050;3.716;2023-04-24T06:29:07;1.50;;;1.20;;
23328;SDS011;11836;51.050;3.716;2023-04-24T06:31:32;2.45;;;1.60;;
23328;SDS011;11836;51.050;3.716;2023-04-24T06:34:02;2.78;;;1.50;;
23328;SDS011;11836;51.050;3.716;2023-04-24T06:36:28;2.85;;;1.70;;
23328;SDS011;11836;51.050;3.716;2023-04-24T06:38:54;2.55;;;1.30;;
23328;SDS011;11836;51.050;3.716;2023-04-24T06:41:20;5.03;;;1.95;;
23328;SDS011;11836;51.050;3.716;2023-04-24T06:43:45;4.95;;;2.15;;
23328;SDS011;11836;51.050;3.716;2023-04-24T06:46:11;5.57;;;2.40;;
23328;SDS011;11836;51.050;3.716;2023-04-24T06:48:38;4.10;;;2.30;;
23328;SDS011;11836;51.050;3.716;2023-04-24T06:51:10;3.75;;;2.47;;
23328;SDS011;11836;51.050;3.716;2023-04-24T06:53:39;4.28;;;2.08;;
23328;SDS011;11836;51.050;3.716;2023-04-24T06:56:10;6.00;;;2.40;;
23328;SDS011;11836;51.050;3.716;2023-04-24T06:58:36;5.97;;;2.67;;
23328;SDS011;11836;51.050;3.716;2023-04-24T07:01:02;6.97;;;2.70;;
23328;SDS011;11836;51.050;3.716;2023-04-24T07:03:27;4.82;;;2.72;;
23328;SDS011;11836;51.050;3.716;2023-04-24T07:05:54;4.22;;;2.60;;
23328;SDS011;11836;51.050;3.716;2023-04-24T07:08:20;5.43;;;2.63;;
23328;SDS011;11836;51.050;3.716;2023-04-24T07:10:47;4.07;;;1.95;;
23328;SDS011;11836;51.050;3.716;2023-04-24T07:13:13;4.93;;;2.33;;
23328;SDS011;11836;51.050;3.716;2023-04-24T07:15:39;4.97;;;2.30;;
23328;SDS011;11836;51.050;3.716;2023-04-24T07:18:05;4.68;;;2.00;;
23328;SDS011;11836;51.050;3.716;2023-04-24T07:20:31;3.85;;;2.03;;
23328;SDS011;11836;51.050;3.716;2023-04-24T07:22:58;5.00;;;2.22;;
23328;SDS011;11836;51.050;3.716;2023-04-24T07:25:23;4.22;;;2.13;;
23328;SDS011;11836;51.050;3.716;2023-04-24T07:27:49;4.53;;;2.10;;
23328;SDS011;11836;51.050;3.716;2023-04-24T07:30:15;3.95;;;2.30;;
23328;SDS011;11836;51.050;3.716;2023-04-24T07:32:41;3.78;;;1.98;;
23328;SDS011;11836;51.050;3.716;2023-04-24T07:35:06;3.75;;;2.00;;
23328;SDS011;11836;51.050;3.716;2023-04-24T07:37:34;2.25;;;1.73;;
23328;SDS011;11836;51.050;3.716;2023-04-24T07:40:00;7.03;;;1.90;;
23328;SDS011;11836;51.050;3.716;2023-04-24T07:42:26;2.53;;;1.83;;
23328;SDS011;11836;51.050;3.716;2023-04-24T07:44:52;2.78;;;1.77;;
23328;SDS011;11836;51.050;3.716;2023-04-24T07:47:18;5.85;;;1.65;;
23328;SDS011;11836;51.050;3.716;2023-04-24T07:49:45;2.88;;;1.80;;
23328;SDS011;11836;51.050;3.716;2023-04-24T07:52:10;2.35;;;1.58;;
23328;SDS011;11836;51.050;3.716;2023-04-24T07:54:36;3.28;;;1.70;;
23328;SDS011;11836;51.050;3.716;2023-04-24T07:57:02;3.03;;;1.67;;
23328;SDS011;11836;51.050;3.716;2023-04-24T07:59:28;3.97;;;1.65;;
23328;SDS011;11836;51.050;3.716;2023-04-24T08:01:54;2.75;;;1.77;;
23328;SDS011;11836;51.050;3.716;2023-04-24T08:04:23;3.50;;;1.75;;
23328;SDS011;11836;51.050;3.716;2023-04-24T08:06:49;1.63;;;1.33;;
23328;SDS011;11836;51.050;3.716;2023-04-24T08:09:18;2.10;;;1.58;;
23328;SDS011;11836;51.050;3.716;2023-04-24T08:11:44;4.07;;;1.70;;
23328;SDS011;11836;51.050;3.716;2023-04-24T08:14:10;5.20;;;1.67;;
23328;SDS011;11836;51.050;3.716;2023-04-24T08:16:37;2.40;;;1.73;;
23328;SDS011;11836;51.050;3.716;2023-04-24T08:19:03;6.40;;;1.90;;
23328;SDS011;11836;51.050;3.716;2023-04-24T08:21:35;4.45;;;2.33;;
23328;SDS011;11836;51.050;3.716;2023-04-24T08:24:00;3.47;;;1.75;;
23328;SDS011;11836;51.050;3.716;2023-04-24T08:26:30;3.80;;;1.40;;
23328;SDS011;11836;51.050;3.716;2023-04-24T08:28:56;2.92;;;1.52;;
23328;SDS011;11836;51.050;3.716;2023-04-24T08:31:22;3.42;;;1.45;;
23328;SDS011;11836;51.050;3.716;2023-04-24T08:33:50;4.25;;;2.03;;
23328;SDS011;11836;51.050;3.716;2023-04-24T08:36:16;4.78;;;1.60;;
23328;SDS011;11836;51.050;3.716;2023-04-24T08:38:42;4.10;;;1.70;;
23328;SDS011;11836;51.050;3.716;2023-04-24T08:41:07;3.17;;;1.85;;
23328;SDS011;11836;51.050;3.716;2023-04-24T08:43:35;5.13;;;1.60;;
23328;SDS011;11836;51.050;3.716;2023-04-24T08:46:03;4.07;;;1.67;;
23328;SDS011;11836;51.050;3.716;2023-04-24T08:48:29;5.07;;;1.88;;
23328;SDS011;11836;51.050;3.716;2023-04-24T08:50:56;3.28;;;1.70;;
23328;SDS011;11836;51.050;3.716;2023-04-24T08:53:22;2.83;;;1.40;;
23328;SDS011;11836;51.050;3.716;2023-04-24T08:55:50;4.25;;;1.58;;
23328;SDS011;11836;51.050;3.716;2023-04-24T08:58:17;3.40;;;1.63;;
23328;SDS011;11836;51.050;3.716;2023-04-24T09:00:47;1.90;;;1.58;;
23328;SDS011;11836;51.050;3.716;2023-04-24T09:03:13;3.22;;;1.58;;
23328;SDS011;11836;51.050;3.716;2023-04-24T09:05:41;3.30;;;1.98;;
23328;SDS011;11836;51.050;3.716;2023-04-24T09:08:11;3.92;;;1.65;;
23328;SDS011;11836;51.050;3.716;2023-04-24T09:10:41;2.97;;;1.67;;
23328;SDS011;11836;51.050;3.716;2023-04-24T09:13:07;3.17;;;1.50;;
23328;SDS011;11836;51.050;3.716;2023-04-24T09:15:36;3.78;;;1.77;;
23328;SDS011;11836;51.050;3.716;2023-04-24T09:18:02;3.60;;;1.40;;
23328;SDS011;11836;51.050;3.716;2023-04-24T09:20:29;2.53;;;1.55;;
23328;SDS011;11836;51.050;3.716;2023-04-24T09:22:54;3.63;;;1.70;;
23328;SDS011;11836;51.050;3.716;2023-04-24T09:25:22;3.47;;;1.38;;
23328;SDS011;11836;51.050;3.716;2023-04-24T09:27:53;3.28;;;1.67;;
23328;SDS011;11836;51.050;3.716;2023-04-24T09:30:23;1.67;;;1.50;;
23328;SDS011;11836;51.050;3.716;2023-04-24T09:32:49;2.42;;;1.58;;
23328;SDS011;11836;51.050;3.716;2023-04-24T09:35:40;2.20;;;1.45;;
23328;SDS011;11836;51.050;3.716;2023-04-24T09:38:34;2.28;;;1.67;;
23328;SDS011;11836;51.050;3.716;2023-04-24T09:41:14;2.70;;;1.42;;
23328;SDS011;11836;51.050;3.716;2023-04-24T09:44:19;3.53;;;1.48;;
23328;SDS011;11836;51.050;3.716;2023-04-24T09:46:50;3.55;;;1.70;;
23328;SDS011;11836;51.050;3.716;2023-04-24T09:49:25;4.07;;;2.10;;
23328;SDS011;11836;51.050;3.716;2023-04-24T09:51:52;3.92;;;1.63;;
23328;SDS011;11836;51.050;3.716;2023-04-24T09:54:30;4.15;;;1.52;;
23328;SDS011;11836;51.050;3.716;2023-04-24T09:56:56;3.67;;;1.98;;
23328;SDS011;11836;51.050;3.716;2023-04-24T09:59:25;4.20;;;1.83;;
23328;SDS011;11836;51.050;3.716;2023-04-24T10:01:51;4.35;;;1.60;;
23328;SDS011;11836;51.050;3.716;2023-04-24T10:06:48;5.10;;;1.42;;
23328;SDS011;11836;51.050;3.716;2023-04-24T10:09:17;3.95;;;1.20;;
23328;SDS011;11836;51.050;3.716;2023-04-24T10:11:46;4.32;;;1.30;;
23328;SDS011;11836;51.050;3.716;2023-04-24T10:14:15;2.03;;;1.25;;
23328;SDS011;11836;51.050;3.716;2023-04-24T10:16:42;2.95;;;1.38;;
23328;SDS011;11836;51.050;3.716;2023-04-24T10:19:09;2.70;;;1.48;;
23328;SDS011;11836;51.050;3.716;2023-04-24T10:21:35;3.55;;;1.70;;
23328;SDS011;11836;51.050;3.716;2023-04-24T10:24:07;3.72;;;1.63;;
23328;SDS011;11836;51.050;3.716;2023-04-24T10:26:34;1.70;;;1.10;;
23328;SDS011;11836;51.050;3.716;2023-04-24T10:29:00;2.13;;;1.80;;
23328;SDS011;11836;51.050;3.716;2023-04-24T10:31:27;4.18;;;1.50;;
23328;SDS011;11836;51.050;3.716;2023-04-24T10:33:56;2.17;;;1.48;;
23328;SDS011;11836;51.050;3.716;2023-04-24T10:36:24;2.20;;;1.40;;
23328;SDS011;11836;51.050;3.716;2023-04-24T10:38:52;3.30;;;1.95;;
23328;SDS011;11836;51.050;3.716;2023-04-24T10:41:19;2.30;;;1.45;;
23328;SDS011;11836;51.050;3.716;2023-04-24T10:43:48;2.35;;;1.50;;
23328;SDS011;11836;51.050;3.716;2023-04-24T10:46:29;4.35;;;1.65;;
23328;SDS011;11836;51.050;3.716;2023-04-24T10:48:55;3.60;;;1.67;;
23328;SDS011;11836;51.050;3.716;2023-04-24T10:51:23;1.77;;;1.33;;
23328;SDS011;11836;51.050;3.716;2023-04-24T10:53:50;2.58;;;1.30;;
23328;SDS011;11836;51.050;3.716;2023-04-24T10:56:17;3.30;;;1.38;;
23328;SDS011;11836;51.050;3.716;2023-04-24T10:58:50;2.50;;;1.60;;
23328;SDS011;11836;51.050;3.716;2023-04-24T11:01:25;3.10;;;1.65;;
23328;SDS011;11836;51.050;3.716;2023-04-24T11:04:01;5.30;;;1.50;;
23328;SDS011;11836;51.050;3.716;2023-04-24T11:06:37;4.15;;;2.03;;
23328;SDS011;11836;51.050;3.716;2023-04-24T11:09:09;2.33;;;1.60;;
23328;SDS011;11836;51.050;3.716;2023-04-24T11:11:38;3.88;;;1.30;;
23328;SDS011;11836;51.050;3.716;2023-04-24T11:14:09;2.63;;;1.42;;
23328;SDS011;11836;51.050;3.716;2023-04-24T11:19:09;2.50;;;1.52;;
23328;SDS011;11836;51.050;3.716;2023-04-24T11:21:40;3.60;;;1.55;;
23328;SDS011;11836;51.050;3.716;2023-04-24T11:24:23;2.53;;;1.23;;
23328;SDS011;11836;51.050;3.716;2023-04-24T11:26:50;2.05;;;1.08;;
23328;SDS011;11836;51.050;3.716;2023-04-24T11:29:19;2.50;;;1.10;;
23328;SDS011;11836;51.050;3.716;2023-04-24T11:31:48;3.50;;;1.30;;
23328;SDS011;11836;51.050;3.716;2023-04-24T11:34:16;1.45;;;1.05;;
23328;SDS011;11836;51.050;3.716;2023-04-24T11:36:46;4.40;;;1.50;;
23328;SDS011;11836;51.050;3.716;2023-04-24T11:39:12;5.13;;;1.48;;
23328;SDS011;11836;51.050;3.716;2023-04-24T11:41:42;2.15;;;1.27;;
23328;SDS011;11836;51.050;3.716;2023-04-24T11:44:08;2.67;;;1.40;;
23328;SDS011;11836;51.050;3.716;2023-04-24T11:46:38;3.55;;;1.38;;
23328;SDS011;11836;51.050;3.716;2023-04-24T11:51:56;2.50;;;1.23;;
23328;SDS011;11836;51.050;3.716;2023-04-24T11:54:21;4.65;;;1.60;;
23328;SDS011;11836;51.050;3.716;2023-04-24T11:56:47;2.40;;;1.70;;
23328;SDS011;11836;51.050;3.716;2023-04-24T11:59:14;7.00;;;1.40;;
23328;SDS011;11836;51.050;3.716;2023-04-24T12:01:43;3.97;;;1.70;;
23328;SDS011;11836;51.050;3.716;2023-04-24T12:04:10;3.75;;;1.40;;
23328;SDS011;11836;51.050;3.716;2023-04-24T12:06:36;2.97;;;1.50;;
23328;SDS011;11836;51.050;3.716;2023-04-24T12:09:05;2.35;;;1.48;;
23328;SDS011;11836;51.050;3.716;2023-04-24T12:11:31;2.13;;;1.27;;
23328;SDS011;11836;51.050;3.716;2023-04-24T12:13:57;2.80;;;1.30;;
23328;SDS011;11836;51.050;3.716;2023-04-24T12:16:23;4.03;;;1.40;;
23328;SDS011;11836;51.050;3.716;2023-04-24T12:18:51;3.00;;;1.42;;
23328;SDS011;11836;51.050;3.716;2023-04-24T12:21:21;2.60;;;1.10;;
23328;SDS011;11836;51.050;3.716;2023-04-24T12:26:17;3.75;;;1.67;;
23328;SDS011;11836;51.050;3.716;2023-04-24T12:28:46;2.75;;;1.40;;
23328;SDS011;11836;51.050;3.716;2023-04-24T12:31:14;2.65;;;1.33;;
23328;SDS011;11836;51.050;3.716;2023-04-24T12:33:41;4.25;;;1.30;;
23328;SDS011;11836;51.050;3.716;2023-04-24T12:36:09;4.25;;;1.88;;
23328;SDS011;11836;51.050;3.716;2023-04-24T12:38:37;2.20;;;1.35;;
23328;SDS011;11836;51.050;3.716;2023-04-24T12:41:09;2.58;;;1.42;;
23328;SDS011;11836;51.050;3.716;2023-04-24T12:43:36;6.50;;;1.60;;
23328;SDS011;11836;51.050;3.716;2023-04-24T12:46:02;2.53;;;1.30;;
23328;SDS011;11836;51.050;3.716;2023-04-24T12:48:29;5.80;;;1.40;;
23328;SDS011;11836;51.050;3.716;2023-04-24T12:50:57;6.60;;;1.58;;
23328;SDS011;11836;51.050;3.716;2023-04-24T12:53:26;5.78;;;1.70;;
23328;SDS011;11836;51.050;3.716;2023-04-24T12:55:53;7.30;;;1.70;;
23328;SDS011;11836;51.050;3.716;2023-04-24T12:58:22;4.35;;;1.58;;
23328;SDS011;11836;51.050;3.716;2023-04-24T13:00:47;2.25;;;1.17;;
23328;SDS011;11836;51.050;3.716;2023-04-24T13:03:13;10.10;;;2.58;;
23328;SDS011;11836;51.050;3.716;2023-04-24T13:05:40;4.30;;;1.88;;
23328;SDS011;11836;51.050;3.716;2023-04-24T13:08:07;7.05;;;1.65;;
23328;SDS011;11836;51.050;3.716;2023-04-24T13:10:33;3.25;;;1.10;;
23328;SDS011;11836;51.050;3.716;2023-04-24T13:12:59;8.95;;;1.67;;
23328;SDS011;11836;51.050;3.716;2023-04-24T13:15:25;4.80;;;1.00;;
23328;SDS011;11836;51.050;3.716;2023-04-24T13:17:51;18.63;;;2.20;;
23328;SDS011;11836;51.050;3.716;2023-04-24T13:20:16;4.78;;;1.50;;
23328;SDS011;11836;51.050;3.716;2023-04-24T13:22:42;6.68;;;1.00;;
23328;SDS011;11836;51.050;3.716;2023-04-24T13:25:08;2.08;;;1.10;;
23328;SDS011;11836;51.050;3.716;2023-04-24T13:27:35;1.58;;;1.05;;
23328;SDS011;11836;51.050;3.716;2023-04-24T13:30:04;3.28;;;1.10;;
23328;SDS011;11836;51.050;3.716;2023-04-24T13:32:30;4.55;;;1.10;;
23328;SDS011;11836;51.050;3.716;2023-04-24T13:34:56;2.38;;;1.10;;
23328;SDS011;11836;51.050;3.716;2023-04-24T13:37:22;2.28;;;1.10;;
23328;SDS011;11836;51.050;3.716;2023-04-24T13:39:48;11.98;;;1.73;;
23328;SDS011;11836;51.050;3.716;2023-04-24T13:42:14;4.60;;;1.17;;
23328;SDS011;11836;51.050;3.716;2023-04-24T13:44:39;34.25;;;3.65;;
23328;SDS011;11836;51.050;3.716;2023-04-24T13:47:05;10.45;;;1.45;;
23328;SDS011;11836;51.050;3.716;2023-04-24T13:49:31;4.18;;;1.50;;
23328;SDS011;11836;51.050;3.716;2023-04-24T13:51:57;3.22;;;1.30;;
23328;SDS011;11836;51.050;3.716;2023-04-24T13:54:22;2.60;;;1.17;;
23328;SDS011;11836;51.050;3.716;2023-04-24T13:56:57;2.90;;;1.20;;
23328;SDS011;11836;51.050;3.716;2023-04-24T13:59:26;2.10;;;0.93;;
23328;SDS011;11836;51.050;3.716;2023-04-24T14:01:51;3.63;;;1.58;;
23328;SDS011;11836;51.050;3.716;2023-04-24T14:04:20;2.90;;;1.27;;
23328;SDS011;11836;51.050;3.716;2023-04-24T14:06:46;4.13;;;1.25;;
23328;SDS011;11836;51.050;3.716;2023-04-24T14:09:11;10.23;;;2.55;;
23328;SDS011;11836;51.050;3.716;2023-04-24T14:11:37;4.38;;;1.13;;
23328;SDS011;11836;51.050;3.716;2023-04-24T14:14:03;4.53;;;1.48;;
23328;SDS011;11836;51.050;3.716;2023-04-24T14:16:29;2.28;;;1.25;;
23328;SDS011;11836;51.050;3.716;2023-04-24T14:18:55;1.80;;;0.90;;
23328;SDS011;11836;51.050;3.716;2023-04-24T14:21:24;1.80;;;1.15;;
23328;SDS011;11836;51.050;3.716;2023-04-24T14:23:49;2.15;;;1.10;;
23328;SDS011;11836;51.050;3.716;2023-04-24T14:26:15;3.38;;;1.33;;
23328;SDS011;11836;51.050;3.716;2023-04-24T14:28:41;2.20;;;0.90;;
23328;SDS011;11836;51.050;3.716;2023-04-24T14:31:07;2.05;;;1.20;;
23328;SDS011;11836;51.050;3.716;2023-04-24T14:33:35;2.70;;;1.40;;
23328;SDS011;11836;51.050;3.716;2023-04-24T14:36:01;2.47;;;1.20;;
23328;SDS011;11836;51.050;3.716;2023-04-24T14:38:27;2.35;;;0.77;;
23328;SDS011;11836;51.050;3.716;2023-04-24T14:40:55;1.10;;;0.90;;
23328;SDS011;11836;51.050;3.716;2023-04-24T14:43:21;5.70;;;1.10;;
23328;SDS011;11836;51.050;3.716;2023-04-24T14:45:47;1.63;;;1.00;;
23328;SDS011;11836;51.050;3.716;2023-04-24T14:48:16;2.35;;;1.10;;
23328;SDS011;11836;51.050;3.716;2023-04-24T14:50:42;1.67;;;0.95;;
23328;SDS011;11836;51.050;3.716;2023-04-24T14:53:08;2.85;;;1.00;;
23328;SDS011;11836;51.050;3.716;2023-04-24T14:55:34;3.10;;;1.42;;
23328;SDS011;11836;51.050;3.716;2023-04-24T14:58:01;2.15;;;1.10;;